Time;durP1;ratioP1;P1;durP2;ratioP2;P2;SDS_P1;SDS_P2;PMS_P1;PMS_P2;Temp;Humidity;BMP_temperature;BMP_pressure;BME280_temperature;BME280_humidity;BME280_pressure;Samples;Min_cycle;Max_cycle;Signal;HPM_P1;HPM_P2
2020/12/15 00:00:12;;;;;;;9.15;1.60;;;9.70;99.90;;;;;;2072987;28;20037;-71
2020/12/15 00:01:17;;;;;;;8.02;1.30;;;9.70;99.90;;;;;;2078120;28;20026;-70
2020/12/15 00:02:18;;;;;;;6.40;1.23;;;9.70;99.90;;;;;;2080929;28;20017;-71
2020/12/15 00:03:18;;;;;;;9.45;1.35;;;9.70;99.90;;;;;;2074550;28;20034;-70
2020/12/15 00:04:20;;;;;;;4.85;1.23;;;9.70;99.90;;;;;;2079034;28;20493;-71
2020/12/15 00:05:20;;;;;;;11.43;1.83;;;9.70;99.90;;;;;;2074468;28;20030;-70
2020/12/15 00:06:21;;;;;;;5.72;1.50;;;9.70;99.90;;;;;;2076629;28;20773;-71
2020/12/15 00:07:21;;;;;;;6.18;1.30;;;9.80;99.90;;;;;;2076059;28;20034;-70
2020/12/15 00:08:22;;;;;;;8.15;1.40;;;9.70;99.90;;;;;;2079944;28;20034;-71
2020/12/15 00:09:23;;;;;;;7.80;1.38;;;9.70;99.90;;;;;;2076782;28;20546;-70
2020/12/15 00:10:23;;;;;;;6.82;1.50;;;9.70;99.90;;;;;;2076706;28;20026;-70
2020/12/15 00:11:24;;;;;;;4.47;1.20;;;9.70;99.90;;;;;;2080740;28;20040;-70
2020/12/15 00:12:25;;;;;;;4.80;1.27;;;9.70;99.90;;;;;;2080879;28;20029;-71
2020/12/15 00:13:25;;;;;;;5.40;1.10;;;9.70;99.90;;;;;;2079619;28;20039;-70
2020/12/15 00:14:26;;;;;;;8.43;1.45;;;9.70;99.90;;;;;;2077659;28;20026;-71
2020/12/15 00:15:27;;;;;;;6.25;1.08;;;9.80;99.90;;;;;;2079528;28;20036;-70
2020/12/15 00:16:27;;;;;;;4.68;1.17;;;9.80;99.90;;;;;;2077129;28;20117;-70
2020/12/15 00:17:28;;;;;;;7.32;1.30;;;9.80;99.90;;;;;;2080749;28;20026;-70
2020/12/15 00:18:29;;;;;;;7.60;1.20;;;9.80;99.90;;;;;;2076217;28;20029;-71
2020/12/15 00:19:29;;;;;;;8.40;1.13;;;9.80;99.90;;;;;;2079973;28;20029;-71
2020/12/15 00:20:32;;;;;;;6.15;1.27;;;9.80;99.90;;;;;;2076604;28;20088;-70
2020/12/15 00:21:32;;;;;;;;;;;9.80;99.90;;;;;;2077520;28;20022;-71
2020/12/15 00:22:34;;;;;;;6.82;1.20;;;9.80;99.90;;;;;;2080225;28;19912;-70
2020/12/15 00:23:35;;;;;;;5.07;1.40;;;9.70;99.90;;;;;;2079987;28;20040;-70
2020/12/15 00:24:35;;;;;;;5.95;1.13;;;9.70;99.90;;;;;;2073893;28;20482;-71
2020/12/15 00:25:36;;;;;;;9.65;1.40;;;9.80;99.90;;;;;;2072488;28;20057;-71
2020/12/15 00:26:37;;;;;;;8.68;1.50;;;9.80;99.90;;;;;;2076604;28;20033;-71
2020/12/15 00:27:38;;;;;;;5.40;1.20;;;9.70;99.90;;;;;;2080728;28;20029;-72
2020/12/15 00:28:38;;;;;;;8.40;2.08;;;9.80;99.90;;;;;;2080468;28;20099;-71
2020/12/15 00:29:39;;;;;;;7.32;1.25;;;9.70;99.90;;;;;;2079697;28;20520;-70
2020/12/15 00:30:40;;;;;;;7.45;1.20;;;9.70;99.90;;;;;;2078531;28;20132;-70
2020/12/15 00:31:41;;;;;;;7.30;1.35;;;9.70;99.90;;;;;;2075287;28;20515;-71
2020/12/15 00:32:49;;;;;;;6.47;1.13;;;9.60;99.90;;;;;;2072563;28;20034;-71
2020/12/15 00:33:49;;;;;;;8.27;1.58;;;9.60;99.90;;;;;;2080104;28;20017;-71
2020/12/15 00:34:50;;;;;;;6.63;1.73;;;9.50;99.90;;;;;;2079957;28;20477;-70
2020/12/15 00:35:51;;;;;;;8.55;1.50;;;9.50;99.90;;;;;;2079828;28;20053;-71
2020/12/15 00:36:51;;;;;;;6.18;1.48;;;9.40;99.90;;;;;;2076510;28;20052;-71
2020/12/15 00:37:52;;;;;;;8.52;1.15;;;9.40;99.90;;;;;;2079516;28;20029;-71
2020/12/15 00:38:53;;;;;;;8.88;1.20;;;9.40;99.90;;;;;;2079175;28;20071;-71
2020/12/15 00:39:53;;;;;;;9.52;1.77;;;9.40;99.90;;;;;;2080360;28;20021;-71
2020/12/15 00:40:54;;;;;;;10.10;2.25;;;9.30;99.90;;;;;;2078810;28;20033;-70
2020/12/15 00:41:55;;;;;;;7.15;2.13;;;9.30;99.90;;;;;;2079589;28;20010;-71
2020/12/15 00:42:55;;;;;;;5.32;1.30;;;9.20;99.90;;;;;;2076841;28;20034;-71
2020/12/15 00:43:56;;;;;;;6.68;1.63;;;9.20;99.90;;;;;;2077579;28;20468;-70
2020/12/15 00:44:57;;;;;;;5.35;1.27;;;9.20;99.90;;;;;;2072503;28;20037;-70
2020/12/15 00:45:57;;;;;;;6.32;1.50;;;9.10;99.90;;;;;;2080778;28;20033;-71
2020/12/15 00:46:58;;;;;;;7.05;1.70;;;9.10;99.90;;;;;;2080570;28;20375;-70
2020/12/15 00:47:59;;;;;;;7.35;1.40;;;9.10;99.90;;;;;;2074468;28;20037;-71
2020/12/15 00:48:59;;;;;;;7.00;1.40;;;9.10;99.90;;;;;;2077846;28;20017;-70
2020/12/15 00:50:00;;;;;;;5.68;1.38;;;9.10;99.90;;;;;;2079828;28;20032;-70
2020/12/15 00:51:00;;;;;;;8.50;1.20;;;9.10;99.90;;;;;;2071698;28;20049;-70
2020/12/15 00:52:01;;;;;;;8.93;1.60;;;9.10;99.90;;;;;;2079769;28;20014;-70
2020/12/15 00:53:02;;;;;;;6.25;1.50;;;9.10;99.90;;;;;;2079902;28;20394;-70
2020/12/15 00:54:03;;;;;;;8.88;1.45;;;9.10;99.90;;;;;;2079769;28;20410;-70
2020/12/15 00:55:04;;;;;;;6.53;1.27;;;9.10;99.90;;;;;;2079725;28;20048;-70
2020/12/15 00:56:05;;;;;;;11.65;1.40;;;9.10;99.90;;;;;;2079482;28;20555;-70
2020/12/15 00:57:06;;;;;;;7.43;1.50;;;9.10;99.90;;;;;;2070528;28;20036;-71
2020/12/15 00:58:06;;;;;;;5.68;1.30;;;9.10;99.90;;;;;;2073451;28;20026;-71
2020/12/15 00:59:07;;;;;;;5.95;1.30;;;9.00;99.90;;;;;;2072936;28;20030;-70
2020/12/15 01:00:11;;;;;;;6.88;1.48;;;9.10;99.90;;;;;;2071720;28;20108;-71
2020/12/15 01:01:12;;;;;;;8.60;1.50;;;9.10;99.90;;;;;;2076557;28;20025;-71
2020/12/15 01:02:13;;;;;;;7.78;1.83;;;9.00;99.90;;;;;;2079010;28;20028;-71
2020/12/15 01:03:14;;;;;;;5.25;1.35;;;9.00;99.90;;;;;;2072683;28;20026;-70
2020/12/15 01:04:14;;;;;;;10.55;1.80;;;9.00;99.90;;;;;;2074384;28;20156;-70
2020/12/15 01:05:15;;;;;;;7.18;1.50;;;9.00;99.90;;;;;;2072449;28;20026;-70
2020/12/15 01:06:16;;;;;;;8.52;1.50;;;9.00;99.90;;;;;;2076133;28;20377;-70
2020/12/15 01:07:16;;;;;;;9.77;1.90;;;9.00;99.90;;;;;;2078615;28;20088;-70
2020/12/15 01:08:17;;;;;;;4.57;1.70;;;9.00;99.90;;;;;;2074903;28;20057;-71
2020/12/15 01:09:18;;;;;;;5.40;1.63;;;9.00;99.90;;;;;;2076787;28;20753;-70
2020/12/15 01:10:19;;;;;;;10.02;2.03;;;9.00;99.90;;;;;;2076116;28;20048;-70
2020/12/15 01:11:19;;;;;;;7.10;1.83;;;9.00;99.90;;;;;;2075754;28;20401;-71
2020/12/15 01:12:20;;;;;;;11.85;2.00;;;9.10;99.90;;;;;;2071983;28;20080;-71
2020/12/15 01:13:21;;;;;;;8.18;1.98;;;9.10;99.90;;;;;;2072621;28;20552;-70
2020/12/15 01:14:22;;;;;;;8.85;2.00;;;9.10;99.90;;;;;;2078335;28;20069;-70
2020/12/15 01:15:22;;;;;;;7.10;2.30;;;9.10;99.90;;;;;;2072025;28;20049;-71
2020/12/15 01:16:23;;;;;;;10.13;2.05;;;9.10;99.90;;;;;;2071834;28;20486;-71
2020/12/15 01:17:24;;;;;;;13.63;2.50;;;9.00;99.90;;;;;;2071812;28;20441;-71
2020/12/15 01:18:24;;;;;;;7.25;2.50;;;9.00;99.90;;;;;;2078235;28;20037;-71
2020/12/15 01:19:25;;;;;;;8.98;2.22;;;9.00;99.90;;;;;;2064759;28;20034;-70
2020/12/15 01:20:26;;;;;;;8.27;2.10;;;9.00;99.90;;;;;;2075914;28;20030;-72
2020/12/15 01:21:29;;;;;;;10.50;2.22;;;9.00;99.90;;;;;;2077757;28;20109;-70
2020/12/15 01:22:30;;;;;;;11.18;2.10;;;9.00;99.90;;;;;;2080112;28;20025;-70
2020/12/15 01:23:31;;;;;;;9.98;2.17;;;9.00;99.90;;;;;;2077184;28;20508;-70
2020/12/15 01:24:32;;;;;;;5.93;2.17;;;9.00;99.90;;;;;;2072568;28;20501;-70
2020/12/15 01:25:32;;;;;;;8.13;1.80;;;9.00;99.90;;;;;;2075809;28;20429;-70
2020/12/15 01:26:33;;;;;;;9.27;2.40;;;8.90;99.90;;;;;;2071526;28;20613;-70
2020/12/15 01:27:34;;;;;;;8.65;1.92;;;8.90;99.90;;;;;;2071574;28;20577;-69
2020/12/15 01:28:34;;;;;;;11.05;2.08;;;8.90;99.90;;;;;;2072458;28;20080;-70
2020/12/15 01:29:35;;;;;;;11.18;2.42;;;8.90;99.90;;;;;;2075800;28;20105;-71
2020/12/15 01:30:36;;;;;;;10.02;2.45;;;8.90;99.90;;;;;;2078665;28;20033;-70
2020/12/15 01:31:36;;;;;;;8.45;2.30;;;8.90;99.90;;;;;;2075625;28;20516;-70
2020/12/15 01:32:37;;;;;;;12.73;2.17;;;9.00;99.90;;;;;;2079271;28;20037;-70
2020/12/15 01:33:38;;;;;;;10.45;2.72;;;8.90;99.90;;;;;;2079132;28;20534;-71
2020/12/15 01:34:38;;;;;;;8.38;2.30;;;8.90;99.90;;;;;;2076639;28;20061;-70
2020/12/15 01:35:39;;;;;;;11.50;2.92;;;8.90;99.90;;;;;;2074992;28;20044;-70
2020/12/15 01:36:40;;;;;;;11.15;2.70;;;8.90;99.90;;;;;;2073385;28;20018;-70
2020/12/15 01:37:40;;;;;;;10.02;2.50;;;8.90;99.90;;;;;;2077265;28;20029;-71
2020/12/15 01:38:42;;;;;;;11.77;2.65;;;8.80;99.90;;;;;;2073808;28;20029;-71
2020/12/15 01:39:42;;;;;;;11.90;2.72;;;8.80;99.90;;;;;;2072088;28;20083;-70
2020/12/15 01:40:52;;;;;;;17.77;3.35;;;8.80;99.90;;;;;;2077251;28;20480;-70
2020/12/15 01:41:52;;;;;;;11.40;2.58;;;8.80;99.90;;;;;;2077760;28;20159;-70
2020/12/15 01:42:53;;;;;;;10.52;2.45;;;8.80;99.90;;;;;;2078241;28;20030;-70
2020/12/15 01:44:02;;;;;;;9.02;2.45;;;8.80;99.90;;;;;;2074215;28;20077;-70
2020/12/15 01:45:04;;;;;;;9.63;2.47;;;8.80;99.90;;;;;;2077460;28;20052;-70
2020/12/15 01:46:05;;;;;;;13.25;2.78;;;8.80;99.90;;;;;;2068382;28;20117;-70
2020/12/15 01:47:06;;;;;;;8.93;2.53;;;8.80;99.90;;;;;;2079554;28;20057;-70
2020/12/15 01:48:06;;;;;;;11.63;2.65;;;8.80;99.90;;;;;;2079345;28;20026;-70
2020/12/15 01:49:08;;;;;;;14.57;3.38;;;8.80;99.90;;;;;;2069939;28;20196;-70
2020/12/15 01:50:09;;;;;;;11.00;2.33;;;8.80;99.90;;;;;;2072684;28;20144;-70
2020/12/15 01:51:10;;;;;;;7.70;2.13;;;8.80;99.90;;;;;;2077750;28;20017;-70
2020/12/15 01:52:13;;;;;;;9.25;2.30;;;8.80;99.90;;;;;;2081052;28;20021;-70
2020/12/15 01:53:14;;;;;;;11.40;2.45;;;8.80;99.90;;;;;;2075081;28;20101;-70
2020/12/15 01:54:14;;;;;;;15.30;2.90;;;8.80;99.90;;;;;;2072723;28;20026;-70
2020/12/15 01:55:17;;;;;;;12.43;2.63;;;8.80;99.90;;;;;;2080726;28;20060;-70
2020/12/15 01:56:18;;;;;;;14.10;2.80;;;8.90;99.90;;;;;;2081064;28;20467;-71
2020/12/15 01:57:18;;;;;;;13.20;2.50;;;8.90;99.90;;;;;;2081231;28;20021;-71
2020/12/15 01:58:19;;;;;;;17.30;3.03;;;8.90;99.90;;;;;;2081855;28;20461;-71
2020/12/15 01:59:22;;;;;;;13.60;2.70;;;8.90;99.90;;;;;;2081582;28;20052;-70
2020/12/15 02:00:25;;;;;;;10.30;2.40;;;8.90;99.90;;;;;;2079993;28;20030;-71
2020/12/15 02:01:26;;;;;;;9.65;2.28;;;8.90;99.90;;;;;;2081324;28;20030;-70
2020/12/15 02:02:27;;;;;;;11.30;2.58;;;8.90;99.90;;;;;;2076163;28;20030;-70
2020/12/15 02:03:27;;;;;;;14.20;2.67;;;8.90;99.90;;;;;;2081666;28;20370;-70
2020/12/15 02:04:28;;;;;;;15.88;2.92;;;9.00;99.90;;;;;;2081591;28;20030;-70
2020/12/15 02:05:30;;;;;;;14.18;2.85;;;9.00;99.90;;;;;;2081098;28;20022;-70
2020/12/15 02:06:30;;;;;;;12.05;2.63;;;8.90;99.90;;;;;;2078149;28;20080;-70
2020/12/15 02:07:31;;;;;;;15.43;2.67;;;8.90;99.90;;;;;;2080115;28;20587;-71
2020/12/15 02:08:32;;;;;;;14.02;3.38;;;8.90;99.90;;;;;;2070848;28;20731;-69
2020/12/15 02:09:33;;;;;;;14.82;2.92;;;8.90;99.90;;;;;;2068228;28;20022;-70
2020/12/15 02:10:34;;;;;;;12.77;2.95;;;8.90;99.90;;;;;;2081003;28;20125;-70
2020/12/15 02:11:34;;;;;;;9.02;2.63;;;8.90;99.90;;;;;;2081392;28;20080;-70
2020/12/15 02:12:35;;;;;;;14.98;2.80;;;8.90;99.90;;;;;;2081641;28;20025;-70
2020/12/15 02:13:36;;;;;;;9.23;2.72;;;8.90;99.90;;;;;;2079375;28;20555;-70
2020/12/15 02:14:38;;;;;;;13.55;2.53;;;8.90;99.90;;;;;;2072513;28;20032;-70
2020/12/15 02:15:40;;;;;;;20.77;2.85;;;8.90;99.90;;;;;;2075603;28;20038;-70
2020/12/15 02:16:41;;;;;;;;;;;8.90;99.90;;;;;;2079523;28;20030;-71
2020/12/15 02:17:41;;;;;;;9.10;2.38;;;8.90;99.90;;;;;;2080896;28;19925;-71
2020/12/15 02:18:42;;;;;;;11.38;2.30;;;8.90;99.90;;;;;;2074163;28;20052;-70
2020/12/15 02:19:42;;;;;;;11.60;2.70;;;8.80;99.90;;;;;;2076645;28;20024;-70
2020/12/15 02:20:43;;;;;;;16.48;3.03;;;8.80;99.90;;;;;;2076037;28;20022;-71
2020/12/15 02:21:48;;;;;;;9.98;2.60;;;8.80;99.90;;;;;;2079504;28;20022;-70
2020/12/15 02:22:49;;;;;;;10.18;2.65;;;8.80;99.90;;;;;;2081706;28;20108;-70
2020/12/15 02:23:50;;;;;;;8.63;2.65;;;8.80;99.90;;;;;;2080801;28;20472;-70
2020/12/15 02:24:50;;;;;;;11.13;2.45;;;8.80;99.90;;;;;;2072643;28;20552;-70
2020/12/15 02:25:51;;;;;;;11.73;2.85;;;8.70;99.90;;;;;;2072770;28;20482;-70
2020/12/15 02:26:52;;;;;;;15.43;3.25;;;8.70;99.90;;;;;;2077360;28;20506;-70
2020/12/15 02:27:53;;;;;;;7.05;2.40;;;8.70;99.90;;;;;;2079572;28;20101;-70
2020/12/15 02:28:54;;;;;;;17.30;3.30;;;8.70;99.90;;;;;;2079901;28;20500;-70
2020/12/15 02:29:54;;;;;;;12.35;2.88;;;8.70;99.90;;;;;;2076414;28;20056;-70
2020/12/15 02:30:55;;;;;;;11.23;2.80;;;8.70;99.90;;;;;;2081574;28;20385;-70
2020/12/15 02:31:56;;;;;;;12.68;2.78;;;8.70;99.90;;;;;;2081401;28;20021;-71
2020/12/15 02:32:56;;;;;;;14.73;2.97;;;8.60;99.90;;;;;;2080868;28;20059;-71
2020/12/15 02:33:57;;;;;;;12.15;2.55;;;8.60;99.90;;;;;;2079255;28;20033;-71
2020/12/15 02:34:58;;;;;;;12.57;2.63;;;8.60;99.90;;;;;;2080263;28;20052;-70
2020/12/15 02:35:59;;;;;;;13.93;2.92;;;8.50;99.90;;;;;;2080855;28;20029;-70
2020/12/15 02:37:09;;;;;;;10.77;2.75;;;8.50;99.90;;;;;;2081248;28;20075;-70
2020/12/15 02:38:10;;;;;;;13.32;2.70;;;8.50;99.90;;;;;;2081515;28;20027;-70
2020/12/15 02:39:13;;;;;;;19.42;3.03;;;8.50;99.90;;;;;;2078965;28;20037;-71
2020/12/15 02:40:13;;;;;;;11.13;2.88;;;8.50;99.90;;;;;;2077775;28;20104;-70
2020/12/15 02:41:14;;;;;;;16.80;2.83;;;8.50;99.90;;;;;;2073089;28;20041;-71
2020/12/15 02:42:15;;;;;;;14.18;2.70;;;8.40;99.90;;;;;;2079978;28;20510;-69
2020/12/15 02:43:16;;;;;;;13.50;3.00;;;8.40;99.90;;;;;;2081417;28;20029;-70
2020/12/15 02:44:16;;;;;;;11.48;2.63;;;8.40;99.90;;;;;;2079752;28;20021;-71
2020/12/15 02:45:17;;;;;;;14.57;3.20;;;8.40;99.90;;;;;;2081352;28;20456;-70
2020/12/15 02:46:17;;;;;;;11.52;2.55;;;8.50;99.90;;;;;;2076915;28;20034;-72
2020/12/15 02:47:18;;;;;;;13.05;2.80;;;8.50;99.90;;;;;;2072415;28;20072;-70
2020/12/15 02:48:19;;;;;;;11.38;2.70;;;8.50;99.90;;;;;;2073458;28;20033;-70
2020/12/15 02:49:20;;;;;;;13.70;3.65;;;8.50;99.90;;;;;;2081020;28;20021;-70
2020/12/15 02:50:23;;;;;;;13.93;2.83;;;8.50;99.90;;;;;;2081269;28;20096;-70
2020/12/15 02:51:25;;;;;;;12.30;2.80;;;8.50;99.90;;;;;;2072775;28;20117;-70
2020/12/15 02:52:25;;;;;;;14.07;2.53;;;8.50;99.90;;;;;;2072546;28;20025;-71
2020/12/15 02:53:26;;;;;;;15.02;2.72;;;8.60;99.90;;;;;;2073441;28;20026;-70
2020/12/15 02:54:27;;;;;;;14.25;2.50;;;8.60;99.90;;;;;;2072798;28;20398;-70
2020/12/15 02:55:27;;;;;;;14.05;2.38;;;8.60;99.90;;;;;;2080961;28;20417;-71
2020/12/15 02:56:28;;;;;;;15.52;2.60;;;8.70;99.90;;;;;;2081362;28;20477;-71
2020/12/15 02:57:28;;;;;;;13.40;2.50;;;8.70;99.90;;;;;;2080707;28;20022;-70
2020/12/15 02:58:29;;;;;;;11.07;2.25;;;8.70;99.90;;;;;;2080861;28;20363;-70
2020/12/15 02:59:30;;;;;;;7.78;2.28;;;8.70;99.90;;;;;;2076682;28;20035;-71
2020/12/15 03:00:30;;;;;;;11.95;2.10;;;8.70;99.90;;;;;;2078121;28;20017;-71
2020/12/15 03:01:31;;;;;;;14.63;2.40;;;8.70;99.90;;;;;;2081120;28;20033;-71
2020/12/15 03:02:31;;;;;;;11.95;2.42;;;8.80;99.90;;;;;;2073737;28;20113;-70
2020/12/15 03:03:32;;;;;;;26.15;2.75;;;8.80;99.90;;;;;;2080022;28;20112;-71
2020/12/15 03:04:33;;;;;;;9.73;2.28;;;8.80;99.90;;;;;;2081364;28;20029;-71
2020/12/15 03:05:33;;;;;;;12.80;2.35;;;8.90;99.90;;;;;;2081483;28;20029;-71
2020/12/15 03:06:35;;;;;;;13.25;2.40;;;8.80;99.90;;;;;;2081145;28;20032;-70
2020/12/15 03:07:36;;;;;;;14.02;2.55;;;8.90;99.90;;;;;;2081429;28;20155;-71
2020/12/15 03:08:36;;;;;;;17.48;2.53;;;8.90;99.90;;;;;;2064339;28;20034;-70
2020/12/15 03:09:37;;;;;;;9.82;2.38;;;9.00;99.90;;;;;;2076710;28;20039;-71
2020/12/15 03:10:39;;;;;;;10.88;2.38;;;8.90;99.90;;;;;;2073069;28;20041;-70
2020/12/15 03:11:40;;;;;;;18.10;2.60;;;8.90;99.90;;;;;;2079997;28;20088;-70
2020/12/15 03:12:41;;;;;;;17.50;3.45;;;8.90;99.90;;;;;;2080655;28;20608;-71
2020/12/15 03:13:41;;;;;;;15.18;3.42;;;8.80;99.90;;;;;;2072286;28;20124;-71
2020/12/15 03:14:42;;;;;;;19.00;3.33;;;8.80;99.90;;;;;;2072264;28;20097;-71
2020/12/15 03:15:42;;;;;;;16.55;3.47;;;8.80;99.90;;;;;;2072538;28;20022;-71
2020/12/15 03:16:43;;;;;;;15.73;3.05;;;8.80;99.90;;;;;;2079689;28;20469;-71
2020/12/15 03:17:44;;;;;;;14.70;3.85;;;8.80;99.90;;;;;;2076168;28;20049;-70
2020/12/15 03:18:45;;;;;;;17.48;3.38;;;8.80;99.90;;;;;;2064287;28;20026;-70
2020/12/15 03:19:45;;;;;;;18.58;3.20;;;8.80;99.90;;;;;;2067876;28;20052;-72
2020/12/15 03:20:47;;;;;;;18.75;3.38;;;8.70;99.90;;;;;;2080551;28;20056;-71
2020/12/15 03:21:48;;;;;;;21.77;3.83;;;8.80;99.90;;;;;;2086968;28;20572;-71
2020/12/15 03:22:48;;;;;;;13.02;3.00;;;8.80;99.90;;;;;;2088810;28;20026;-70
2020/12/15 03:23:49;;;;;;;13.45;3.05;;;8.80;99.90;;;;;;2080167;28;20032;-71
2020/12/15 03:24:50;;;;;;;17.40;2.70;;;8.80;99.90;;;;;;2080083;28;20082;-70
2020/12/15 03:25:54;;;;;;;13.25;2.63;;;8.80;99.90;;;;;;2072600;28;20025;-70
2020/12/15 03:26:55;;;;;;;17.45;2.55;;;8.80;99.90;;;;;;2070967;28;20132;-70
2020/12/15 03:27:56;;;;;;;12.55;2.65;;;8.80;99.90;;;;;;2072306;28;20510;-70
2020/12/15 03:28:56;;;;;;;15.23;2.92;;;8.80;99.90;;;;;;2080604;28;20018;-70
2020/12/15 03:29:57;;;;;;;20.98;2.90;;;8.80;99.90;;;;;;2081019;28;20112;-70
2020/12/15 03:30:58;;;;;;;21.77;2.72;;;8.80;99.90;;;;;;2078596;28;20033;-70
2020/12/15 03:31:58;;;;;;;15.10;2.40;;;8.90;99.90;;;;;;2080003;28;20033;-70
2020/12/15 03:32:59;;;;;;;18.73;2.33;;;8.80;99.90;;;;;;2080310;28;20029;-70
2020/12/15 03:34:00;;;;;;;20.65;2.85;;;9.00;99.90;;;;;;2080447;28;20726;-70
2020/12/15 03:35:00;;;;;;;15.38;2.80;;;9.00;99.90;;;;;;2075251;28;20093;-70
2020/12/15 03:36:01;;;;;;;20.85;3.05;;;9.00;99.90;;;;;;2077327;28;20033;-70
2020/12/15 03:37:02;;;;;;;23.95;3.00;;;9.00;99.90;;;;;;2080396;28;20022;-70
2020/12/15 03:38:03;;;;;;;14.82;2.72;;;9.00;99.90;;;;;;2081171;28;20029;-71
2020/12/15 03:39:06;;;;;;;17.77;2.72;;;9.00;99.90;;;;;;2081083;28;20057;-70
2020/12/15 03:40:07;;;;;;;17.98;3.53;;;8.90;99.90;;;;;;2080541;28;20017;-70
2020/12/15 03:41:08;;;;;;;19.65;3.03;;;9.00;99.90;;;;;;2072511;28;20480;-70
2020/12/15 03:42:09;;;;;;;12.30;2.28;;;9.00;99.90;;;;;;2078264;28;20521;-70
2020/12/15 03:43:10;;;;;;;14.20;2.65;;;9.00;99.90;;;;;;2081076;28;20017;-70
2020/12/15 03:44:10;;;;;;;15.02;3.13;;;9.00;99.90;;;;;;2078671;28;20068;-69
2020/12/15 03:45:13;;;;;;;19.80;2.90;;;9.00;99.90;;;;;;2080064;28;20021;-70
2020/12/15 03:46:13;;;;;;;;;;;9.00;99.90;;;;;;2075542;28;20117;-70
2020/12/15 03:47:14;;;;;;;11.18;2.25;;;9.00;99.90;;;;;;2078244;28;19909;-71
2020/12/15 03:48:14;;;;;;;14.27;2.80;;;8.90;99.90;;;;;;2080782;28;20026;-70
2020/12/15 03:49:15;;;;;;;17.85;3.15;;;8.90;99.90;;;;;;2080937;28;20026;-71
2020/12/15 03:50:16;;;;;;;14.88;2.70;;;8.90;99.90;;;;;;2080972;28;20473;-70
2020/12/15 03:51:17;;;;;;;11.60;3.30;;;8.80;99.90;;;;;;2080878;28;20025;-70
2020/12/15 03:52:17;;;;;;;20.45;3.38;;;8.80;99.90;;;;;;2079496;28;20025;-70
2020/12/15 03:53:18;;;;;;;13.40;2.72;;;8.80;99.90;;;;;;2077465;28;20033;-70
2020/12/15 03:54:19;;;;;;;22.23;3.70;;;8.80;99.90;;;;;;2080321;28;20412;-70
2020/12/15 03:55:22;;;;;;;15.50;3.75;;;8.70;99.90;;;;;;2080224;28;20040;-71
2020/12/15 03:56:23;;;;;;;16.10;2.83;;;8.70;99.90;;;;;;2080105;28;20537;-70
2020/12/15 03:57:24;;;;;;;15.43;3.30;;;8.70;99.90;;;;;;2072128;28;20031;-70
2020/12/15 03:58:24;;;;;;;13.77;3.58;;;8.70;99.90;;;;;;2080520;28;20547;-71
2020/12/15 03:59:25;;;;;;;20.13;3.92;;;8.70;99.90;;;;;;2080790;28;20025;-70
2020/12/15 04:00:26;;;;;;;15.13;3.83;;;8.60;99.90;;;;;;2080288;28;20107;-70
2020/12/15 04:01:26;;;;;;;17.35;3.53;;;8.60;99.90;;;;;;2076859;28;20034;-70
2020/12/15 04:02:27;;;;;;;21.23;3.92;;;8.60;99.90;;;;;;2080195;28;20745;-70
2020/12/15 04:03:28;;;;;;;17.63;3.75;;;8.50;99.90;;;;;;2080413;28;20036;-70
2020/12/15 04:04:29;;;;;;;20.33;3.65;;;8.50;99.90;;;;;;2076719;28;20358;-70
2020/12/15 04:05:29;;;;;;;15.88;3.42;;;8.50;99.90;;;;;;2080974;28;20074;-70
2020/12/15 04:06:30;;;;;;;17.13;4.38;;;8.50;99.90;;;;;;2080920;28;20036;-70
2020/12/15 04:07:31;;;;;;;15.02;3.47;;;8.40;99.90;;;;;;2082882;28;20040;-70
2020/12/15 04:08:31;;;;;;;16.33;3.67;;;8.50;99.90;;;;;;2080945;28;20030;-70
2020/12/15 04:09:32;;;;;;;18.95;5.45;;;8.50;99.90;;;;;;2079953;28;20063;-70
2020/12/15 04:10:33;;;;;;;18.00;4.00;;;8.50;99.90;;;;;;2078500;28;20021;-70
2020/12/15 04:11:33;;;;;;;16.88;4.40;;;8.50;99.90;;;;;;2079484;28;20173;-70
2020/12/15 04:12:34;;;;;;;18.05;3.83;;;8.50;99.90;;;;;;2080281;28;20060;-70
2020/12/15 04:13:35;;;;;;;17.77;3.72;;;8.40;99.90;;;;;;2080889;28;20036;-70
2020/12/15 04:14:36;;;;;;;15.00;3.50;;;8.40;99.90;;;;;;2079626;28;20413;-69
2020/12/15 04:15:36;;;;;;;18.15;3.47;;;8.40;99.90;;;;;;2080268;28;20057;-70
2020/12/15 04:16:37;;;;;;;18.40;4.50;;;8.40;99.90;;;;;;2074345;28;20181;-70
2020/12/15 04:17:38;;;;;;;23.33;4.28;;;8.40;99.90;;;;;;2072058;28;20061;-70
2020/12/15 04:18:38;;;;;;;18.20;4.15;;;8.40;99.90;;;;;;2088580;28;20017;-70
2020/12/15 04:19:39;;;;;;;17.52;4.00;;;8.40;99.90;;;;;;2074555;28;20021;-70
2020/12/15 04:20:40;;;;;;;27.80;4.53;;;8.40;99.90;;;;;;2076316;28;20024;-70
2020/12/15 04:21:40;;;;;;;17.90;4.40;;;8.40;99.90;;;;;;2079837;28;20025;-70
2020/12/15 04:22:41;;;;;;;18.23;4.75;;;8.40;99.90;;;;;;2080153;28;20097;-70
2020/12/15 04:23:43;;;;;;;17.75;4.50;;;8.40;99.90;;;;;;2079831;28;20398;-69
2020/12/15 04:24:43;;;;;;;21.35;5.43;;;8.40;99.90;;;;;;2070812;28;20025;-70
2020/12/15 04:25:56;;;;;;;14.85;4.38;;;8.40;99.90;;;;;;2071807;28;20030;-70
2020/12/15 04:26:57;;;;;;;17.33;5.10;;;8.40;99.90;;;;;;2080120;28;20056;-72
2020/12/15 04:27:58;;;;;;;20.48;4.65;;;8.40;99.90;;;;;;2080653;28;20037;-69
2020/12/15 04:28:58;;;;;;;21.20;4.70;;;8.50;99.90;;;;;;2076235;28;20497;-70
2020/12/15 04:29:59;;;;;;;21.00;4.68;;;8.50;99.90;;;;;;2072698;28;20483;-70
2020/12/15 04:31:00;;;;;;;20.58;4.63;;;8.50;99.90;;;;;;2072547;28;20025;-69
2020/12/15 04:32:01;;;;;;;20.25;4.43;;;8.40;99.90;;;;;;2078237;28;20446;-70
2020/12/15 04:33:01;;;;;;;16.02;4.85;;;8.50;99.90;;;;;;2079978;28;20026;-70
2020/12/15 04:34:02;;;;;;;23.00;4.97;;;8.50;99.90;;;;;;2080638;28;20084;-71
2020/12/15 04:35:02;;;;;;;15.77;4.70;;;8.40;99.90;;;;;;2080542;28;20473;-70
2020/12/15 04:36:03;;;;;;;22.13;5.93;;;8.40;99.90;;;;;;2075512;28;20100;-70
2020/12/15 04:37:04;;;;;;;21.17;5.25;;;8.40;99.90;;;;;;2079743;28;20053;-70
2020/12/15 04:38:05;;;;;;;22.70;5.47;;;8.40;99.90;;;;;;2074609;28;20037;-71
2020/12/15 04:39:06;;;;;;;20.55;5.03;;;8.40;99.90;;;;;;2080647;28;20981;-69
2020/12/15 04:40:06;;;;;;;15.45;4.85;;;8.50;99.90;;;;;;2079729;28;20045;-70
2020/12/15 04:41:07;;;;;;;27.75;4.93;;;8.50;99.90;;;;;;2075365;28;20678;-70
2020/12/15 04:42:08;;;;;;;22.70;4.57;;;8.50;99.90;;;;;;2079121;28;20038;-69
2020/12/15 04:43:10;;;;;;;17.08;4.72;;;8.50;99.90;;;;;;2079880;28;20025;-70
2020/12/15 04:44:11;;;;;;;19.75;4.82;;;8.50;99.90;;;;;;2088283;28;20071;-70
2020/12/15 04:45:12;;;;;;;20.70;4.88;;;8.50;99.90;;;;;;2086625;28;20107;-70
2020/12/15 04:46:18;;;;;;;24.75;4.60;;;8.50;99.90;;;;;;2076680;28;20097;-69
2020/12/15 04:47:25;;;;;;;24.63;5.50;;;8.50;99.90;;;;;;2079328;28;20045;-70
2020/12/15 04:48:28;;;;;;;17.02;4.45;;;8.60;99.90;;;;;;2074072;28;20022;-70
2020/12/15 04:49:37;;;;;;;17.33;4.32;;;8.60;99.90;;;;;;2079915;28;20120;-70
2020/12/15 04:50:38;;;;;;;18.42;5.45;;;8.60;99.90;;;;;;2079808;28;20100;-70
2020/12/15 04:52:02;;;;;;;20.73;5.18;;;8.70;99.90;;;;;;2074565;28;20026;-70
2020/12/15 04:53:08;;;;;;;27.67;4.90;;;8.70;99.90;;;;;;2072439;28;20053;-70
2020/12/15 04:54:15;;;;;;;17.13;3.72;;;8.80;99.90;;;;;;2078732;28;20504;-70
2020/12/15 04:55:16;;;;;;;24.65;3.55;;;8.80;99.90;;;;;;2080383;28;20018;-70
2020/12/15 04:56:28;;;;;;;23.15;3.10;;;8.80;99.90;;;;;;2074326;28;20509;-70
2020/12/15 04:57:33;;;;;;;22.02;3.17;;;8.80;99.90;;;;;;2074379;28;20032;-70
2020/12/15 04:58:38;;;;;;;14.30;2.97;;;8.80;99.90;;;;;;2072403;28;20032;-70
2020/12/15 04:59:41;;;;;;;13.98;2.47;;;8.80;99.90;;;;;;2078111;28;20425;-70
2020/12/15 05:00:42;;;;;;;14.18;2.13;;;8.80;99.90;;;;;;2079587;28;20056;-70
2020/12/15 05:01:45;;;;;;;19.95;2.85;;;8.80;99.90;;;;;;2079968;28;20496;-70
2020/12/15 05:02:57;;;;;;;16.17;2.33;;;8.80;99.90;;;;;;2080452;28;20405;-70
2020/12/15 05:04:01;;;;;;;16.73;2.35;;;8.80;99.90;;;;;;2080274;28;20026;-70
2020/12/15 05:05:02;;;;;;;13.38;2.30;;;8.80;99.90;;;;;;2072966;28;20036;-70
2020/12/15 05:06:05;;;;;;;15.70;2.22;;;8.80;99.90;;;;;;2078131;28;20021;-70
2020/12/15 05:07:07;;;;;;;12.68;2.00;;;8.80;99.90;;;;;;2073402;28;20045;-70
2020/12/15 05:08:11;;;;;;;19.92;2.20;;;8.80;99.90;;;;;;2073698;28;20358;-73
2020/12/15 05:09:12;;;;;;;16.75;2.47;;;8.80;99.90;;;;;;2064909;28;20037;-70
2020/12/15 05:10:16;;;;;;;17.75;2.25;;;8.80;99.90;;;;;;2073455;28;20037;-70
2020/12/15 05:11:16;;;;;;;12.40;2.10;;;8.80;99.90;;;;;;2077834;28;20029;-70
2020/12/15 05:12:17;;;;;;;16.70;2.42;;;8.80;99.90;;;;;;2071760;28;20157;-70
2020/12/15 05:13:18;;;;;;;16.00;2.00;;;8.80;99.90;;;;;;2078446;28;20028;-71
2020/12/15 05:14:18;;;;;;;9.40;1.85;;;8.80;99.90;;;;;;2079695;28;20022;-70
2020/12/15 05:15:19;;;;;;;20.08;2.50;;;8.80;99.90;;;;;;2079578;28;20034;-70
2020/12/15 05:16:20;;;;;;;17.70;3.00;;;8.80;99.90;;;;;;2075065;28;20017;-70
2020/12/15 05:17:32;;;;;;;22.40;3.05;;;8.80;99.90;;;;;;2075320;28;20049;-70
2020/12/15 05:18:33;;;;;;;16.20;2.70;;;8.80;99.90;;;;;;2079634;28;20495;-70
2020/12/15 05:19:43;;;;;;;24.55;2.75;;;8.80;99.90;;;;;;2074234;28;20041;-70
2020/12/15 05:20:43;;;;;;;27.50;3.15;;;8.80;99.90;;;;;;2079785;28;20049;-70